sensor_id;sensor_type;location;lat;lon;timestamp;P1;durP1;ratioP1;P2;durP2;ratioP2
35699;SDS011;21818;51.078;12.108;2022-09-03T00:00:44;1.33;;;0.73;;
35699;SDS011;21818;51.078;12.108;2022-09-03T00:03:17;1.40;;;0.85;;
35699;SDS011;21818;51.078;12.108;2022-09-03T00:08:43;1.15;;;0.70;;
35699;SDS011;21818;51.078;12.108;2022-09-03T00:14:25;3.92;;;0.60;;
35699;SDS011;21818;51.078;12.108;2022-09-03T00:16:59;2.05;;;0.95;;
35699;SDS011;21818;51.078;12.108;2022-09-03T00:19:30;0.82;;;0.68;;
35699;SDS011;21818;51.078;12.108;2022-09-03T00:24:35;3.05;;;0.68;;
35699;SDS011;21818;51.078;12.108;2022-09-03T00:27:05;1.65;;;0.90;;
35699;SDS011;21818;51.078;12.108;2022-09-03T00:29:38;2.70;;;0.90;;
35699;SDS011;21818;51.078;12.108;2022-09-03T00:32:10;3.20;;;0.80;;
35699;SDS011;21818;51.078;12.108;2022-09-03T00:34:45;2.28;;;0.77;;
35699;SDS011;21818;51.078;12.108;2022-09-03T00:37:14;1.10;;;0.70;;
35699;SDS011;21818;51.078;12.108;2022-09-03T00:39:40;1.83;;;0.85;;
35699;SDS011;21818;51.078;12.108;2022-09-03T00:55:57;1.65;;;0.80;;
35699;SDS011;21818;51.078;12.108;2022-09-03T01:12:47;1.63;;;0.90;;
35699;SDS011;21818;51.078;12.108;2022-09-03T01:18:25;1.98;;;0.80;;
35699;SDS011;21818;51.078;12.108;2022-09-03T01:21:03;1.33;;;0.90;;
35699;SDS011;21818;51.078;12.108;2022-09-03T01:27:01;2.53;;;0.90;;
35699;SDS011;21818;51.078;12.108;2022-09-03T01:35:35;1.98;;;0.90;;
35699;SDS011;21818;51.078;12.108;2022-09-03T01:44:01;2.88;;;0.90;;
35699;SDS011;21818;51.078;12.108;2022-09-03T01:46:40;2.55;;;0.80;;
35699;SDS011;21818;51.078;12.108;2022-09-03T01:51:49;1.45;;;1.00;;
35699;SDS011;21818;51.078;12.108;2022-09-03T01:59:51;1.65;;;0.93;;
35699;SDS011;21818;51.078;12.108;2022-09-03T02:02:29;1.23;;;0.83;;
35699;SDS011;21818;51.078;12.108;2022-09-03T02:07:37;4.75;;;1.25;;
35699;SDS011;21818;51.078;12.108;2022-09-03T02:10:05;2.10;;;0.80;;
35699;SDS011;21818;51.078;12.108;2022-09-03T02:12:40;2.75;;;1.02;;
35699;SDS011;21818;51.078;12.108;2022-09-03T02:15:12;2.20;;;0.88;;
35699;SDS011;21818;51.078;12.108;2022-09-03T02:17:40;2.88;;;0.88;;
35699;SDS011;21818;51.078;12.108;2022-09-03T02:20:09;2.90;;;0.95;;
35699;SDS011;21818;51.078;12.108;2022-09-03T02:22:38;4.28;;;1.17;;
35699;SDS011;21818;51.078;12.108;2022-09-03T02:25:05;1.75;;;0.75;;
35699;SDS011;21818;51.078;12.108;2022-09-03T02:27:31;1.38;;;0.80;;
35699;SDS011;21818;51.078;12.108;2022-09-03T02:29:57;2.90;;;0.77;;
35699;SDS011;21818;51.078;12.108;2022-09-03T02:32:24;3.10;;;0.90;;
35699;SDS011;21818;51.078;12.108;2022-09-03T02:34:50;4.00;;;1.02;;
35699;SDS011;21818;51.078;12.108;2022-09-03T02:37:16;1.50;;;0.80;;
35699;SDS011;21818;51.078;12.108;2022-09-03T02:39:43;2.88;;;0.85;;
35699;SDS011;21818;51.078;12.108;2022-09-03T02:42:09;1.77;;;1.05;;
35699;SDS011;21818;51.078;12.108;2022-09-03T02:47:37;1.33;;;0.70;;
35699;SDS011;21818;51.078;12.108;2022-09-03T02:50:06;2.15;;;0.82;;
35699;SDS011;21818;51.078;12.108;2022-09-03T02:52:32;4.07;;;1.58;;
35699;SDS011;21818;51.078;12.108;2022-09-03T02:54:57;4.30;;;0.82;;
35699;SDS011;21818;51.078;12.108;2022-09-03T02:57:23;2.08;;;1.00;;
35699;SDS011;21818;51.078;12.108;2022-09-03T02:59:48;2.45;;;1.00;;
35699;SDS011;21818;51.078;12.108;2022-09-03T03:02:14;2.08;;;0.93;;
35699;SDS011;21818;51.078;12.108;2022-09-03T03:04:39;2.17;;;0.98;;
35699;SDS011;21818;51.078;12.108;2022-09-03T03:07:06;2.00;;;1.00;;
35699;SDS011;21818;51.078;12.108;2022-09-03T03:09:31;2.78;;;0.85;;
35699;SDS011;21818;51.078;12.108;2022-09-03T03:11:57;1.80;;;0.73;;
35699;SDS011;21818;51.078;12.108;2022-09-03T03:14:23;4.13;;;1.20;;
35699;SDS011;21818;51.078;12.108;2022-09-03T03:16:49;2.30;;;1.20;;
35699;SDS011;21818;51.078;12.108;2022-09-03T03:19:14;3.53;;;1.02;;
35699;SDS011;21818;51.078;12.108;2022-09-03T03:21:40;3.00;;;0.80;;
35699;SDS011;21818;51.078;12.108;2022-09-03T03:24:06;3.72;;;1.10;;
35699;SDS011;21818;51.078;12.108;2022-09-03T03:26:32;2.38;;;1.30;;
35699;SDS011;21818;51.078;12.108;2022-09-03T03:28:59;2.58;;;1.00;;
35699;SDS011;21818;51.078;12.108;2022-09-03T03:31:26;2.53;;;0.90;;
35699;SDS011;21818;51.078;12.108;2022-09-03T03:33:52;5.53;;;1.27;;
35699;SDS011;21818;51.078;12.108;2022-09-03T03:36:19;1.85;;;1.15;;
35699;SDS011;21818;51.078;12.108;2022-09-03T03:38:45;5.50;;;1.33;;
35699;SDS011;21818;51.078;12.108;2022-09-03T03:41:15;4.60;;;1.50;;
35699;SDS011;21818;51.078;12.108;2022-09-03T03:43:42;3.30;;;1.40;;
35699;SDS011;21818;51.078;12.108;2022-09-03T03:46:09;2.50;;;1.25;;
35699;SDS011;21818;51.078;12.108;2022-09-03T03:48:35;2.20;;;1.30;;
35699;SDS011;21818;51.078;12.108;2022-09-03T03:51:03;2.75;;;1.20;;
35699;SDS011;21818;51.078;12.108;2022-09-03T03:53:30;2.47;;;1.70;;
35699;SDS011;21818;51.078;12.108;2022-09-03T03:55:57;3.22;;;1.33;;
35699;SDS011;21818;51.078;12.108;2022-09-03T03:58:25;3.75;;;1.52;;
35699;SDS011;21818;51.078;12.108;2022-09-03T04:00:51;2.60;;;1.30;;
35699;SDS011;21818;51.078;12.108;2022-09-03T04:03:17;4.20;;;1.50;;
35699;SDS011;21818;51.078;12.108;2022-09-03T04:05:53;6.72;;;2.17;;
35699;SDS011;21818;51.078;12.108;2022-09-03T04:08:20;3.30;;;1.67;;
35699;SDS011;21818;51.078;12.108;2022-09-03T04:10:45;4.28;;;1.90;;
35699;SDS011;21818;51.078;12.108;2022-09-03T04:13:11;4.28;;;1.58;;
35699;SDS011;21818;51.078;12.108;2022-09-03T04:15:37;5.05;;;1.50;;
35699;SDS011;21818;51.078;12.108;2022-09-03T04:18:03;4.22;;;1.90;;
35699;SDS011;21818;51.078;12.108;2022-09-03T04:20:28;4.88;;;1.98;;
35699;SDS011;21818;51.078;12.108;2022-09-03T04:22:54;5.65;;;2.20;;
35699;SDS011;21818;51.078;12.108;2022-09-03T04:25:25;4.80;;;2.08;;
35699;SDS011;21818;51.078;12.108;2022-09-03T04:27:50;7.20;;;2.50;;
35699;SDS011;21818;51.078;12.108;2022-09-03T04:30:16;4.40;;;1.88;;
35699;SDS011;21818;51.078;12.108;2022-09-03T04:32:42;4.15;;;1.75;;
35699;SDS011;21818;51.078;12.108;2022-09-03T04:35:18;5.40;;;2.30;;
35699;SDS011;21818;51.078;12.108;2022-09-03T04:37:48;5.82;;;1.77;;
35699;SDS011;21818;51.078;12.108;2022-09-03T04:40:13;6.72;;;1.92;;
35699;SDS011;21818;51.078;12.108;2022-09-03T04:42:39;5.63;;;2.15;;
35699;SDS011;21818;51.078;12.108;2022-09-03T04:45:05;2.90;;;0.90;;
35699;SDS011;21818;51.078;12.108;2022-09-03T04:47:32;2.20;;;0.77;;
35699;SDS011;21818;51.078;12.108;2022-09-03T04:50:00;3.50;;;1.20;;
35699;SDS011;21818;51.078;12.108;2022-09-03T04:52:27;6.50;;;1.40;;
35699;SDS011;21818;51.078;12.108;2022-09-03T04:54:55;23.45;;;4.25;;
35699;SDS011;21818;51.078;12.108;2022-09-03T04:57:21;27.40;;;5.43;;
35699;SDS011;21818;51.078;12.108;2022-09-03T04:59:47;27.55;;;4.50;;
35699;SDS011;21818;51.078;12.108;2022-09-03T05:02:12;21.95;;;4.80;;
35699;SDS011;21818;51.078;12.108;2022-09-03T05:04:39;21.52;;;4.15;;
35699;SDS011;21818;51.078;12.108;2022-09-03T05:07:08;12.95;;;3.53;;
35699;SDS011;21818;51.078;12.108;2022-09-03T05:09:34;10.88;;;3.22;;
35699;SDS011;21818;51.078;12.108;2022-09-03T05:11:59;16.25;;;4.10;;
35699;SDS011;21818;51.078;12.108;2022-09-03T05:14:25;16.20;;;3.45;;
35699;SDS011;21818;51.078;12.108;2022-09-03T05:16:50;13.38;;;3.25;;
35699;SDS011;21818;51.078;12.108;2022-09-03T05:19:16;15.80;;;3.33;;
35699;SDS011;21818;51.078;12.108;2022-09-03T05:21:42;14.95;;;3.00;;
35699;SDS011;21818;51.078;12.108;2022-09-03T05:24:08;11.30;;;2.60;;
35699;SDS011;21818;51.078;12.108;2022-09-03T05:26:36;10.95;;;2.97;;
35699;SDS011;21818;51.078;12.108;2022-09-03T05:29:04;8.32;;;2.70;;
35699;SDS011;21818;51.078;12.108;2022-09-03T05:31:31;12.82;;;2.53;;
35699;SDS011;21818;51.078;12.108;2022-09-03T05:33:58;14.55;;;3.22;;
35699;SDS011;21818;51.078;12.108;2022-09-03T05:36:27;10.80;;;2.72;;
35699;SDS011;21818;51.078;12.108;2022-09-03T05:38:54;10.35;;;2.25;;
35699;SDS011;21818;51.078;12.108;2022-09-03T05:41:22;7.43;;;2.08;;
35699;SDS011;21818;51.078;12.108;2022-09-03T05:43:48;17.20;;;3.33;;
35699;SDS011;21818;51.078;12.108;2022-09-03T05:46:23;8.10;;;2.67;;
35699;SDS011;21818;51.078;12.108;2022-09-03T05:48:56;5.15;;;1.67;;
35699;SDS011;21818;51.078;12.108;2022-09-03T05:51:23;2.78;;;1.40;;
35699;SDS011;21818;51.078;12.108;2022-09-03T05:53:49;2.83;;;1.23;;
35699;SDS011;21818;51.078;12.108;2022-09-03T05:56:15;1.85;;;0.85;;
35699;SDS011;21818;51.078;12.108;2022-09-03T05:58:43;5.82;;;1.30;;
35699;SDS011;21818;51.078;12.108;2022-09-03T06:01:17;2.33;;;1.00;;
35699;SDS011;21818;51.078;12.108;2022-09-03T06:06:25;3.40;;;1.15;;
35699;SDS011;21818;51.078;12.108;2022-09-03T06:08:52;3.70;;;0.80;;
35699;SDS011;21818;51.078;12.108;2022-09-03T06:11:22;4.95;;;0.82;;
35699;SDS011;21818;51.078;12.108;2022-09-03T06:13:50;2.10;;;0.90;;
35699;SDS011;21818;51.078;12.108;2022-09-03T06:16:16;3.80;;;1.48;;
35699;SDS011;21818;51.078;12.108;2022-09-03T06:18:42;2.95;;;1.00;;
35699;SDS011;21818;51.078;12.108;2022-09-03T06:21:07;5.47;;;0.93;;
35699;SDS011;21818;51.078;12.108;2022-09-03T06:23:34;1.88;;;0.90;;
35699;SDS011;21818;51.078;12.108;2022-09-03T06:26:03;12.15;;;1.42;;
35699;SDS011;21818;51.078;12.108;2022-09-03T06:28:34;2.30;;;0.93;;
35699;SDS011;21818;51.078;12.108;2022-09-03T06:33:29;1.70;;;1.00;;
35699;SDS011;21818;51.078;12.108;2022-09-03T06:35:56;4.22;;;1.00;;
35699;SDS011;21818;51.078;12.108;2022-09-03T06:38:27;6.13;;;1.10;;
35699;SDS011;21818;51.078;12.108;2022-09-03T06:40:56;1.88;;;0.90;;
35699;SDS011;21818;51.078;12.108;2022-09-03T06:43:27;2.40;;;1.02;;
35699;SDS011;21818;51.078;12.108;2022-09-03T06:48:21;3.30;;;1.20;;
35699;SDS011;21818;51.078;12.108;2022-09-03T06:50:52;3.65;;;1.27;;
35699;SDS011;21818;51.078;12.108;2022-09-03T06:53:19;2.55;;;1.00;;
35699;SDS011;21818;51.078;12.108;2022-09-03T06:55:53;3.28;;;1.27;;
35699;SDS011;21818;51.078;12.108;2022-09-03T06:58:20;3.17;;;1.35;;
35699;SDS011;21818;51.078;12.108;2022-09-03T07:00:47;2.67;;;1.20;;
35699;SDS011;21818;51.078;12.108;2022-09-03T07:03:14;7.47;;;1.13;;
35699;SDS011;21818;51.078;12.108;2022-09-03T07:05:41;5.68;;;2.08;;
35699;SDS011;21818;51.078;12.108;2022-09-03T07:08:08;2.60;;;1.10;;
35699;SDS011;21818;51.078;12.108;2022-09-03T07:10:35;4.18;;;1.27;;
35699;SDS011;21818;51.078;12.108;2022-09-03T07:13:01;2.33;;;1.10;;
35699;SDS011;21818;51.078;12.108;2022-09-03T07:15:27;3.38;;;1.20;;
35699;SDS011;21818;51.078;12.108;2022-09-03T07:17:53;2.10;;;1.00;;
35699;SDS011;21818;51.078;12.108;2022-09-03T07:20:19;2.17;;;0.80;;
35699;SDS011;21818;51.078;12.108;2022-09-03T07:22:46;2.60;;;1.17;;
35699;SDS011;21818;51.078;12.108;2022-09-03T07:25:11;2.78;;;0.98;;
35699;SDS011;21818;51.078;12.108;2022-09-03T07:27:37;3.45;;;0.88;;
35699;SDS011;21818;51.078;12.108;2022-09-03T07:30:02;1.95;;;0.88;;
35699;SDS011;21818;51.078;12.108;2022-09-03T07:32:33;3.60;;;1.00;;
35699;SDS011;21818;51.078;12.108;2022-09-03T07:35:01;5.55;;;1.02;;
35699;SDS011;21818;51.078;12.108;2022-09-03T07:37:27;1.33;;;0.82;;
35699;SDS011;21818;51.078;12.108;2022-09-03T07:39:52;4.65;;;1.10;;
35699;SDS011;21818;51.078;12.108;2022-09-03T07:42:18;3.30;;;0.90;;
35699;SDS011;21818;51.078;12.108;2022-09-03T07:44:44;2.10;;;1.13;;
35699;SDS011;21818;51.078;12.108;2022-09-03T07:47:10;1.55;;;1.08;;
35699;SDS011;21818;51.078;12.108;2022-09-03T07:49:37;2.95;;;1.10;;
35699;SDS011;21818;51.078;12.108;2022-09-03T07:52:02;2.80;;;1.17;;
35699;SDS011;21818;51.078;12.108;2022-09-03T07:54:28;2.30;;;1.15;;
35699;SDS011;21818;51.078;12.108;2022-09-03T07:56:55;3.92;;;1.23;;
35699;SDS011;21818;51.078;12.108;2022-09-03T07:59:20;5.38;;;0.90;;
35699;SDS011;21818;51.078;12.108;2022-09-03T08:01:47;2.83;;;1.00;;
35699;SDS011;21818;51.078;12.108;2022-09-03T08:04:14;2.92;;;0.90;;
35699;SDS011;21818;51.078;12.108;2022-09-03T08:06:40;2.15;;;1.00;;
35699;SDS011;21818;51.078;12.108;2022-09-03T08:09:07;4.22;;;1.00;;
35699;SDS011;21818;51.078;12.108;2022-09-03T08:11:36;2.35;;;1.27;;
35699;SDS011;21818;51.078;12.108;2022-09-03T08:14:04;2.45;;;0.88;;
35699;SDS011;21818;51.078;12.108;2022-09-03T08:16:32;5.05;;;1.30;;
35699;SDS011;21818;51.078;12.108;2022-09-03T08:19:06;4.28;;;1.10;;
35699;SDS011;21818;51.078;12.108;2022-09-03T08:21:32;4.30;;;0.88;;
35699;SDS011;21818;51.078;12.108;2022-09-03T08:23:58;1.17;;;0.80;;
35699;SDS011;21818;51.078;12.108;2022-09-03T08:26:27;2.92;;;0.70;;
35699;SDS011;21818;51.078;12.108;2022-09-03T08:28:57;2.58;;;1.00;;
35699;SDS011;21818;51.078;12.108;2022-09-03T08:31:23;4.32;;;1.58;;
35699;SDS011;21818;51.078;12.108;2022-09-03T08:33:51;2.50;;;1.20;;
35699;SDS011;21818;51.078;12.108;2022-09-03T08:36:19;1.48;;;0.80;;
35699;SDS011;21818;51.078;12.108;2022-09-03T08:38:47;1.38;;;0.82;;
35699;SDS011;21818;51.078;12.108;2022-09-03T08:46:53;3.25;;;1.10;;
35699;SDS011;21818;51.078;12.108;2022-09-03T08:52:04;2.65;;;1.10;;
35699;SDS011;21818;51.078;12.108;2022-09-03T08:54:45;2.95;;;0.80;;
35699;SDS011;21818;51.078;12.108;2022-09-03T08:57:12;1.55;;;0.85;;
35699;SDS011;21818;51.078;12.108;2022-09-03T08:59:40;1.48;;;0.70;;
35699;SDS011;21818;51.078;12.108;2022-09-03T09:04:58;0.98;;;0.65;;
35699;SDS011;21818;51.078;12.108;2022-09-03T09:07:44;2.10;;;0.77;;
35699;SDS011;21818;51.078;12.108;2022-09-03T09:10:15;3.08;;;0.75;;
35699;SDS011;21818;51.078;12.108;2022-09-03T09:13:09;1.55;;;0.80;;
35699;SDS011;21818;51.078;12.108;2022-09-03T09:15:44;1.50;;;0.70;;
35699;SDS011;21818;51.078;12.108;2022-09-03T09:23:41;1.05;;;0.52;;
35699;SDS011;21818;51.078;12.108;2022-09-03T09:26:14;3.67;;;0.90;;
35699;SDS011;21818;51.078;12.108;2022-09-03T09:28:54;2.95;;;0.80;;
35699;SDS011;21818;51.078;12.108;2022-09-03T09:31:27;3.15;;;0.80;;
35699;SDS011;21818;51.078;12.108;2022-09-03T09:33:54;2.55;;;0.85;;
35699;SDS011;21818;51.078;12.108;2022-09-03T09:36:26;2.08;;;0.63;;
35699;SDS011;21818;51.078;12.108;2022-09-03T09:38:52;1.83;;;0.60;;
35699;SDS011;21818;51.078;12.108;2022-09-03T09:41:18;1.92;;;0.80;;
35699;SDS011;21818;51.078;12.108;2022-09-03T09:43:58;1.30;;;0.77;;
35699;SDS011;21818;51.078;12.108;2022-09-03T09:46:38;3.35;;;1.02;;
35699;SDS011;21818;51.078;12.108;2022-09-03T09:52:15;3.92;;;0.75;;
35699;SDS011;21818;51.078;12.108;2022-09-03T09:54:42;2.55;;;0.85;;
35699;SDS011;21818;51.078;12.108;2022-09-03T09:57:15;2.92;;;0.55;;
35699;SDS011;21818;51.078;12.108;2022-09-03T09:59:45;2.40;;;0.80;;
35699;SDS011;21818;51.078;12.108;2022-09-03T10:02:12;1.52;;;0.60;;
35699;SDS011;21818;51.078;12.108;2022-09-03T10:05:11;2.63;;;0.90;;
35699;SDS011;21818;51.078;12.108;2022-09-03T10:08:01;1.73;;;0.88;;
35699;SDS011;21818;51.078;12.108;2022-09-03T10:10:29;1.30;;;0.70;;
35699;SDS011;21818;51.078;12.108;2022-09-03T10:13:07;1.15;;;0.73;;
35699;SDS011;21818;51.078;12.108;2022-09-03T10:15:39;1.40;;;0.70;;
35699;SDS011;21818;51.078;12.108;2022-09-03T10:21:07;1.58;;;0.60;;
35699;SDS011;21818;51.078;12.108;2022-09-03T10:26:23;1.35;;;0.70;;
35699;SDS011;21818;51.078;12.108;2022-09-03T10:28:55;1.33;;;0.50;;
35699;SDS011;21818;51.078;12.108;2022-09-03T10:31:33;1.20;;;0.68;;
35699;SDS011;21818;51.078;12.108;2022-09-03T10:39:46;2.97;;;0.65;;
35699;SDS011;21818;51.078;12.108;2022-09-03T10:42:55;1.15;;;0.60;;
35699;SDS011;21818;51.078;12.108;2022-09-03T10:48:49;0.68;;;0.55;;
35699;SDS011;21818;51.078;12.108;2022-09-03T10:51:31;1.05;;;0.57;;
35699;SDS011;21818;51.078;12.108;2022-09-03T10:54:03;1.20;;;0.60;;
35699;SDS011;21818;51.078;12.108;2022-09-03T11:08:04;0.63;;;0.47;;
35699;SDS011;21818;51.078;12.108;2022-09-03T11:10:47;1.10;;;0.52;;
35699;SDS011;21818;51.078;12.108;2022-09-03T11:13:18;2.28;;;0.75;;
35699;SDS011;21818;51.078;12.108;2022-09-03T11:18:26;1.27;;;0.75;;
35699;SDS011;21818;51.078;12.108;2022-09-03T11:20:54;1.02;;;0.60;;
35699;SDS011;21818;51.078;12.108;2022-09-03T11:23:24;3.03;;;0.80;;
35699;SDS011;21818;51.078;12.108;2022-09-03T11:25:56;0.85;;;0.60;;
35699;SDS011;21818;51.078;12.108;2022-09-03T11:28:43;1.65;;;0.63;;
35699;SDS011;21818;51.078;12.108;2022-09-03T11:34:31;1.17;;;0.55;;
35699;SDS011;21818;51.078;12.108;2022-09-03T11:37:16;1.45;;;0.60;;
35699;SDS011;21818;51.078;12.108;2022-09-03T11:40:06;2.07;;;0.80;;
35699;SDS011;21818;51.078;12.108;2022-09-03T11:42:39;2.33;;;0.57;;
35699;SDS011;21818;51.078;12.108;2022-09-03T11:50:20;2.28;;;0.80;;
35699;SDS011;21818;51.078;12.108;2022-09-03T11:52:49;3.72;;;0.73;;
35699;SDS011;21818;51.078;12.108;2022-09-03T11:55:24;2.45;;;0.70;;
35699;SDS011;21818;51.078;12.108;2022-09-03T11:57:55;3.40;;;0.95;;
35699;SDS011;21818;51.078;12.108;2022-09-03T12:00:21;1.40;;;0.90;;
35699;SDS011;21818;51.078;12.108;2022-09-03T12:02:51;0.85;;;0.70;;
35699;SDS011;21818;51.078;12.108;2022-09-03T12:05:41;2.70;;;1.08;;
35699;SDS011;21818;51.078;12.108;2022-09-03T12:08:29;1.42;;;0.80;;
35699;SDS011;21818;51.078;12.108;2022-09-03T12:16:40;1.02;;;0.70;;
35699;SDS011;21818;51.078;12.108;2022-09-03T12:19:38;1.13;;;0.70;;
35699;SDS011;21818;51.078;12.108;2022-09-03T12:22:12;1.08;;;0.60;;
35699;SDS011;21818;51.078;12.108;2022-09-03T12:27:09;1.77;;;0.65;;
35699;SDS011;21818;51.078;12.108;2022-09-03T12:29:48;1.65;;;0.60;;
35699;SDS011;21818;51.078;12.108;2022-09-03T12:32:20;1.25;;;0.63;;
35699;SDS011;21818;51.078;12.108;2022-09-03T12:34:45;1.35;;;0.77;;
35699;SDS011;21818;51.078;12.108;2022-09-03T12:37:31;1.05;;;0.65;;
35699;SDS011;21818;51.078;12.108;2022-09-03T12:40:00;1.23;;;0.60;;
35699;SDS011;21818;51.078;12.108;2022-09-03T12:42:26;1.67;;;0.70;;
35699;SDS011;21818;51.078;12.108;2022-09-03T12:44:54;1.20;;;0.60;;
35699;SDS011;21818;51.078;12.108;2022-09-03T12:47:29;2.17;;;0.75;;
35699;SDS011;21818;51.078;12.108;2022-09-03T12:49:56;1.98;;;0.73;;
35699;SDS011;21818;51.078;12.108;2022-09-03T12:52:29;0.93;;;0.77;;
35699;SDS011;21818;51.078;12.108;2022-09-03T12:58:15;1.15;;;0.70;;
35699;SDS011;21818;51.078;12.108;2022-09-03T13:00:55;1.58;;;0.65;;
35699;SDS011;21818;51.078;12.108;2022-09-03T13:03:47;0.82;;;0.50;;
35699;SDS011;21818;51.078;12.108;2022-09-03T13:06:25;2.03;;;0.88;;
35699;SDS011;21818;51.078;12.108;2022-09-03T13:08:57;1.20;;;0.80;;
35699;SDS011;21818;51.078;12.108;2022-09-03T13:11:25;0.80;;;0.60;;
35699;SDS011;21818;51.078;12.108;2022-09-03T13:14:00;1.95;;;0.90;;
35699;SDS011;21818;51.078;12.108;2022-09-03T13:22:29;1.75;;;0.70;;
35699;SDS011;21818;51.078;12.108;2022-09-03T13:27:38;1.80;;;0.60;;
35699;SDS011;21818;51.078;12.108;2022-09-03T13:30:33;2.10;;;0.65;;
35699;SDS011;21818;51.078;12.108;2022-09-03T13:33:22;0.95;;;0.75;;
35699;SDS011;21818;51.078;12.108;2022-09-03T13:36:13;1.27;;;0.70;;
35699;SDS011;21818;51.078;12.108;2022-09-03T13:41:41;0.90;;;0.70;;
35699;SDS011;21818;51.078;12.108;2022-09-03T13:44:15;0.80;;;0.60;;
35699;SDS011;21818;51.078;12.108;2022-09-03T13:49:38;4.20;;;0.68;;
35699;SDS011;21818;51.078;12.108;2022-09-03T13:52:36;0.85;;;0.60;;
35699;SDS011;21818;51.078;12.108;2022-09-03T13:55:34;2.13;;;0.73;;
35699;SDS011;21818;51.078;12.108;2022-09-03T13:58:17;1.50;;;0.70;;
35699;SDS011;21818;51.078;12.108;2022-09-03T14:03:47;3.25;;;0.93;;
35699;SDS011;21818;51.078;12.108;2022-09-03T14:09:05;1.15;;;0.65;;
35699;SDS011;21818;51.078;12.108;2022-09-03T14:11:59;1.83;;;0.68;;
35699;SDS011;21818;51.078;12.108;2022-09-03T14:17:05;1.92;;;0.85;;
35699;SDS011;21818;51.078;12.108;2022-09-03T14:20:27;2.45;;;1.00;;
35699;SDS011;21818;51.078;12.108;2022-09-03T14:25:22;1.85;;;0.77;;
35699;SDS011;21818;51.078;12.108;2022-09-03T14:27:50;2.65;;;0.70;;
35699;SDS011;21818;51.078;12.108;2022-09-03T14:33:11;1.88;;;0.80;;
35699;SDS011;21818;51.078;12.108;2022-09-03T14:38:55;1.15;;;0.70;;
35699;SDS011;21818;51.078;12.108;2022-09-03T14:47:12;1.42;;;0.77;;
35699;SDS011;21818;51.078;12.108;2022-09-03T14:55:36;1.45;;;0.60;;
35699;SDS011;21818;51.078;12.108;2022-09-03T14:58:11;0.98;;;0.55;;
35699;SDS011;21818;51.078;12.108;2022-09-03T15:01:17;2.33;;;0.88;;
35699;SDS011;21818;51.078;12.108;2022-09-03T15:10:03;1.20;;;0.60;;
35699;SDS011;21818;51.078;12.108;2022-09-03T15:13:05;1.58;;;0.50;;
35699;SDS011;21818;51.078;12.108;2022-09-03T15:18:25;1.92;;;0.70;;
35699;SDS011;21818;51.078;12.108;2022-09-03T15:21:25;3.58;;;0.68;;
35699;SDS011;21818;51.078;12.108;2022-09-03T15:27:00;1.65;;;0.90;;
35699;SDS011;21818;51.078;12.108;2022-09-03T15:35:32;1.73;;;0.60;;
35699;SDS011;21818;51.078;12.108;2022-09-03T15:38:09;1.08;;;0.88;;
35699;SDS011;21818;51.078;12.108;2022-09-03T15:43:24;1.15;;;0.73;;
35699;SDS011;21818;51.078;12.108;2022-09-03T15:45:54;1.02;;;0.63;;
35699;SDS011;21818;51.078;12.108;2022-09-03T15:48:25;2.35;;;0.70;;
35699;SDS011;21818;51.078;12.108;2022-09-03T15:51:08;0.80;;;0.45;;
35699;SDS011;21818;51.078;12.108;2022-09-03T15:53:44;1.10;;;0.65;;
35699;SDS011;21818;51.078;12.108;2022-09-03T15:59:05;1.08;;;0.60;;
35699;SDS011;21818;51.078;12.108;2022-09-03T16:04:42;0.95;;;0.60;;
35699;SDS011;21818;51.078;12.108;2022-09-03T16:12:44;0.98;;;0.60;;
35699;SDS011;21818;51.078;12.108;2022-09-03T16:15:22;2.30;;;0.70;;
35699;SDS011;21818;51.078;12.108;2022-09-03T16:18:01;1.20;;;0.73;;
35699;SDS011;21818;51.078;12.108;2022-09-03T16:20:35;0.88;;;0.52;;
35699;SDS011;21818;51.078;12.108;2022-09-03T16:23:09;1.30;;;0.70;;
35699;SDS011;21818;51.078;12.108;2022-09-03T16:25:52;2.42;;;0.80;;
35699;SDS011;21818;51.078;12.108;2022-09-03T16:28:44;1.90;;;0.63;;
35699;SDS011;21818;51.078;12.108;2022-09-03T16:36:48;0.90;;;0.60;;
35699;SDS011;21818;51.078;12.108;2022-09-03T16:48:07;0.98;;;0.60;;
35699;SDS011;21818;51.078;12.108;2022-09-03T16:50:39;1.23;;;0.60;;
35699;SDS011;21818;51.078;12.108;2022-09-03T16:53:24;1.38;;;0.60;;
35699;SDS011;21818;51.078;12.108;2022-09-03T16:59:23;1.23;;;0.70;;
35699;SDS011;21818;51.078;12.108;2022-09-03T17:25:23;1.05;;;0.65;;
35699;SDS011;21818;51.078;12.108;2022-09-03T17:30:51;2.05;;;0.80;;
35699;SDS011;21818;51.078;12.108;2022-09-03T17:36:24;1.45;;;0.70;;
35699;SDS011;21818;51.078;12.108;2022-09-03T17:39:14;0.75;;;0.52;;
35699;SDS011;21818;51.078;12.108;2022-09-03T17:44:41;2.55;;;0.77;;
35699;SDS011;21818;51.078;12.108;2022-09-03T17:50:42;1.60;;;0.50;;
35699;SDS011;21818;51.078;12.108;2022-09-03T17:53:38;1.42;;;0.98;;
35699;SDS011;21818;51.078;12.108;2022-09-03T17:56:21;1.60;;;0.60;;
35699;SDS011;21818;51.078;12.108;2022-09-03T17:59:11;2.72;;;1.02;;
35699;SDS011;21818;51.078;12.108;2022-09-03T18:02:08;1.20;;;0.63;;
35699;SDS011;21818;51.078;12.108;2022-09-03T18:10:03;1.23;;;0.70;;
35699;SDS011;21818;51.078;12.108;2022-09-03T18:12:58;2.03;;;0.90;;
35699;SDS011;21818;51.078;12.108;2022-09-03T18:15:30;5.88;;;0.93;;
35699;SDS011;21818;51.078;12.108;2022-09-03T18:18:03;8.13;;;1.20;;
35699;SDS011;21818;51.078;12.108;2022-09-03T18:20:41;1.88;;;0.93;;
35699;SDS011;21818;51.078;12.108;2022-09-03T18:23:37;2.13;;;0.63;;
35699;SDS011;21818;51.078;12.108;2022-09-03T18:26:57;2.17;;;0.80;;
35699;SDS011;21818;51.078;12.108;2022-09-03T18:30:00;3.38;;;1.30;;
35699;SDS011;21818;51.078;12.108;2022-09-03T18:32:53;6.22;;;1.00;;
35699;SDS011;21818;51.078;12.108;2022-09-03T18:35:37;4.00;;;0.90;;
35699;SDS011;21818;51.078;12.108;2022-09-03T18:38:32;2.90;;;1.10;;
35699;SDS011;21818;51.078;12.108;2022-09-03T18:50:28;7.75;;;2.08;;
35699;SDS011;21818;51.078;12.108;2022-09-03T18:57:11;5.13;;;1.15;;
35699;SDS011;21818;51.078;12.108;2022-09-03T18:59:55;4.70;;;1.20;;
35699;SDS011;21818;51.078;12.108;2022-09-03T19:15:59;3.58;;;1.45;;
35699;SDS011;21818;51.078;12.108;2022-09-03T19:21:47;3.92;;;1.40;;
35699;SDS011;21818;51.078;12.108;2022-09-03T19:24:38;2.45;;;1.20;;
35699;SDS011;21818;51.078;12.108;2022-09-03T19:30:31;3.70;;;1.13;;
35699;SDS011;21818;51.078;12.108;2022-09-03T19:36:12;2.17;;;1.17;;
35699;SDS011;21818;51.078;12.108;2022-09-03T19:39:10;3.08;;;1.00;;
35699;SDS011;21818;51.078;12.108;2022-09-03T19:48:27;4.45;;;1.40;;
35699;SDS011;21818;51.078;12.108;2022-09-03T19:52:13;6.10;;;1.40;;
35699;SDS011;21818;51.078;12.108;2022-09-03T19:54:37;3.10;;;1.47;;
35699;SDS011;21818;51.078;12.108;2022-09-03T19:57:22;2.83;;;1.17;;
35699;SDS011;21818;51.078;12.108;2022-09-03T20:00:08;3.78;;;1.20;;
35699;SDS011;21818;51.078;12.108;2022-09-03T20:02:53;5.63;;;1.02;;
35699;SDS011;21818;51.078;12.108;2022-09-03T20:05:38;3.97;;;1.33;;
35699;SDS011;21818;51.078;12.108;2022-09-03T20:08:22;5.28;;;1.20;;
35699;SDS011;21818;51.078;12.108;2022-09-03T20:11:10;4.07;;;1.17;;
35699;SDS011;21818;51.078;12.108;2022-09-03T20:13:43;5.07;;;1.40;;
35699;SDS011;21818;51.078;12.108;2022-09-03T20:16:33;4.07;;;1.30;;
35699;SDS011;21818;51.078;12.108;2022-09-03T20:21:54;4.72;;;1.25;;
35699;SDS011;21818;51.078;12.108;2022-09-03T20:24:42;1.88;;;0.95;;
35699;SDS011;21818;51.078;12.108;2022-09-03T20:38:25;5.40;;;1.85;;
35699;SDS011;21818;51.078;12.108;2022-09-03T20:41:09;4.43;;;1.02;;
35699;SDS011;21818;51.078;12.108;2022-09-03T20:52:22;7.60;;;2.45;;